Hagerstown Regional Richard A Henson Field Hagerstown US
ICAO: KHGR
IATA: HGR
Category: Medium
Scheduled Services: No

Elevation: 703 ft
TransAlt. 18000 ft.

Airport Communications:
ASOS:126.375
WASHINGTON CNTR:134.15
CTAF:120.3
GND:121.9
AR OPS:32.3
LEESBURG RDO:109.8
TWR:120.3
UNICOM:122.95

KHGR Zoom In..

If you have problems with the map follow the link
https://www.worldairports.se/pages/airport.php?
ICAO=KHGR

Runways:

(A) RW 02 length 3165 ft width 100 ft
---- / hdg 26

(B) RW 09 length 7000 ft width 150 ft
ILS 111.90 / hdg 92

(C) RW 20 length 3165 ft width 100 ft
---- / hdg 206

(D) RW 27 length 7000 ft width 150 ft
ILS 111.90 / hdg 272

Location; KHGR
Day. 20 / Time. 21.08 Zulu
* Altimeter: 30.27
* Temperature: 00° c. 32°f.
* Wind from: 140° Speed 10 kn.
Dewpoint: -03° c.
Visibility: 3 Statute Miles.
Clouds: Scattered 700 ft.
Clouds: Broken 1800 ft.
Clouds: Overcast 2500 ft.
Conditions: Light Rain.Conditions: Mist.

KHGR 202108Z 14010KT 3SM -RA BR SCT007 BKN018 OVC025 00/M03 A3027 RMK AO2 P0000 T00001033


Wind From 140°
Speed 10 kn.

 
 
jpsmedia.com for Web Design worldairports.se 2019   terms of use